Time;durP1;ratioP1;P1;durP2;ratioP2;P2;SDS_P1;SDS_P2;PMS_P1;PMS_P2;Temp;Humidity;BMP_temperature;BMP_pressure;BME280_temperature;BME280_humidity;BME280_pressure;Samples;Min_cycle;Max_cycle;Signal;HPM_P1;HPM_P2
2021/08/06 00:00:58;;;;;;;12.38;9.10;;;;;;;17.25;86.42;99866.09;4979649;28;20377;-80
2021/08/06 00:03:24;;;;;;;11.00;9.73;;;;;;;17.23;86.79;99859.25;4981143;28;20039;-80
2021/08/06 00:05:49;;;;;;;11.70;9.70;;;;;;;17.21;86.65;99856.78;4983405;28;20085;-82
2021/08/06 00:08:15;;;;;;;11.80;9.57;;;;;;;17.16;87.05;99853.94;5014676;28;20057;-81
2021/08/06 00:10:40;;;;;;;10.82;9.10;;;;;;;17.15;87.15;99855.00;4979266;28;20038;-82
2021/08/06 00:13:06;;;;;;;10.10;9.02;;;;;;;17.10;87.54;99854.84;4949735;28;20424;-81
2021/08/06 00:15:31;;;;;;;12.30;9.40;;;;;;;17.05;87.84;99860.13;4981776;28;20176;-82
2021/08/06 00:17:57;;;;;;;12.07;10.38;;;;;;;17.01;88.16;99857.06;4982817;28;20546;-82
2021/08/06 00:20:22;;;;;;;12.90;10.30;;;;;;;16.97;88.52;99855.03;4981211;28;20062;-81
2021/08/06 00:22:47;;;;;;;10.82;9.68;;;;;;;16.92;88.72;99851.13;4971746;28;20321;-81
2021/08/06 00:25:13;;;;;;;11.00;9.52;;;;;;;16.93;89.18;99854.66;4970899;28;20054;-81
2021/08/06 00:27:39;;;;;;;10.85;8.15;;;;;;;16.94;89.02;99853.59;4962121;28;20049;-83
2021/08/06 00:30:05;;;;;;;12.45;9.60;;;;;;;16.94;89.09;99852.78;4957544;28;20046;-82
2021/08/06 00:32:31;;;;;;;11.13;9.30;;;;;;;16.94;89.05;99845.47;4961968;28;20073;-82
2021/08/06 00:34:56;;;;;;;12.23;8.90;;;;;;;16.95;88.94;99841.72;4952847;28;20552;-82
2021/08/06 00:37:21;;;;;;;12.25;9.40;;;;;;;16.95;89.01;99846.31;4961273;28;20063;-81
2021/08/06 00:39:47;;;;;;;11.35;9.48;;;;;;;16.96;88.95;99842.53;4962761;28;20800;-81
2021/08/06 00:42:12;;;;;;;11.60;9.40;;;;;;;16.94;89.42;99848.19;4963339;28;20388;-82
2021/08/06 00:44:38;;;;;;;10.57;9.07;;;;;;;16.96;89.04;99831.72;4958725;28;20047;-81
2021/08/06 00:47:03;;;;;;;10.30;8.75;;;;;;;16.96;89.47;99831.72;4963009;28;20070;-81
2021/08/06 00:49:29;;;;;;;12.80;8.73;;;;;;;17.00;89.24;99835.59;4966588;28;20043;-82
2021/08/06 00:51:54;;;;;;;9.65;7.50;;;;;;;17.02;89.04;99838.91;4972624;28;20079;-82
2021/08/06 00:54:22;;;;;;;8.52;7.63;;;;;;;17.06;89.00;99837.38;4960455;28;20045;-80
2021/08/06 00:56:48;;;;;;;9.90;8.25;;;;;;;17.08;88.86;99835.28;4960734;28;20447;-81
2021/08/06 00:59:14;;;;;;;9.30;7.47;;;;;;;17.08;88.99;99825.25;4962233;28;20129;-82
2021/08/06 01:01:40;;;;;;;10.80;7.68;;;;;;;17.13;88.80;99832.72;4975237;28;20554;-82
2021/08/06 01:04:21;;;;;;;9.10;7.53;;;;;;;17.18;88.44;99834.75;4957786;28;20046;-81
2021/08/06 01:06:51;;;;;;;9.38;6.60;;;;;;;17.18;88.48;99824.72;4957391;28;20059;-81
2021/08/06 01:09:21;;;;;;;8.50;6.60;;;;;;;17.19;88.59;99820.94;4962125;28;20138;-81
2021/08/06 01:11:52;;;;;;;7.28;6.28;;;;;;;17.20;88.57;99825.28;4961242;28;20058;-82
2021/08/06 01:14:21;;;;;;;8.85;6.00;;;;;;;17.22;88.08;99823.19;4962524;28;20038;-81
2021/08/06 01:16:49;;;;;;;7.68;5.82;;;;;;;17.23;88.23;99822.13;4957946;28;20035;-82
2021/08/06 01:19:25;;;;;;;8.68;5.70;;;;;;;17.27;88.01;99817.91;4975773;28;20047;-81
2021/08/06 01:22:00;;;;;;;7.85;6.00;;;;;;;17.27;88.06;99819.78;4958320;28;20760;-81
2021/08/06 01:24:27;;;;;;;7.43;5.60;;;;;;;17.28;88.25;99819.53;4961939;28;20130;-81
2021/08/06 01:26:55;;;;;;;9.38;5.97;;;;;;;17.28;88.22;99814.13;4960469;28;20411;-83
2021/08/06 01:29:20;;;;;;;8.80;5.25;;;;;;;17.27;88.79;99806.25;4955833;28;20137;-82
2021/08/06 01:31:47;;;;;;;6.88;4.95;;;;;;;17.28;88.46;99803.28;4959933;28;20284;-82
2021/08/06 01:34:12;;;;;;;8.00;5.97;;;;;;;17.28;88.66;99800.56;4961280;28;20699;-81
2021/08/06 01:36:37;;;;;;;9.13;5.88;;;;;;;17.28;88.60;99803.28;4976924;28;20050;-81
2021/08/06 01:39:03;;;;;;;6.45;5.55;;;;;;;17.27;89.00;99806.25;4962196;28;20035;-81
2021/08/06 01:41:49;;;;;;;7.50;5.38;;;;;;;17.25;88.71;99801.03;4958255;28;20035;-82
2021/08/06 01:44:30;;;;;;;6.93;5.70;;;;;;;17.26;88.83;99801.84;4958640;28;20050;-82
2021/08/06 01:47:09;;;;;;;6.93;5.20;;;;;;;17.24;89.19;99802.09;4982543;28;20056;-82
2021/08/06 01:49:42;;;;;;;8.40;5.70;;;;;;;17.25;88.62;99801.03;4980924;28;20403;-80
2021/08/06 01:52:17;;;;;;;6.75;5.30;;;;;;;17.25;88.75;99803.75;4982134;28;20048;-82
2021/08/06 01:54:46;;;;;;;7.20;5.72;;;;;;;17.26;88.86;99802.72;4994597;28;20050;-81
2021/08/06 01:57:13;;;;;;;7.10;5.53;;;;;;;17.26;89.29;99793.72;4977595;28;20049;-82
2021/08/06 01:59:39;;;;;;;7.15;5.57;;;;;;;17.25;89.50;99798.31;4981254;28;20042;-82
2021/08/06 02:02:05;;;;;;;6.93;5.20;;;;;;;17.23;89.63;99788.75;4979587;28;20038;-82
2021/08/06 02:04:31;;;;;;;8.88;5.50;;;;;;;17.22;89.63;99792.53;4943444;28;20130;-81
2021/08/06 02:06:56;;;;;;;9.68;5.60;;;;;;;17.22;89.89;99801.50;4956256;28;20190;-82
2021/08/06 02:09:22;;;;;;;7.55;5.47;;;;;;;17.21;89.80;99797.16;4943517;28;20397;-81
2021/08/06 02:11:49;;;;;;;7.18;5.35;;;;;;;17.19;89.86;99793.84;4960266;28;20062;-82
2021/08/06 02:14:19;;;;;;;7.15;5.97;;;;;;;17.18;89.91;99794.91;4961568;28;20039;-81
2021/08/06 02:16:46;;;;;;;6.78;5.50;;;;;;;17.17;90.12;99785.09;4956856;28;20488;-82
2021/08/06 02:19:17;;;;;;;8.82;5.97;;;;;;;17.17;89.91;99792.41;4961116;28;20093;-82
2021/08/06 02:21:46;;;;;;;7.18;5.65;;;;;;;17.14;90.27;99790.97;4960069;28;20183;-81
2021/08/06 02:24:13;;;;;;;8.27;5.57;;;;;;;17.13;90.41;99778.50;4969263;28;20405;-81
2021/08/06 02:26:42;;;;;;;7.90;6.03;;;;;;;17.11;90.54;99783.31;4958516;28;20050;-81
2021/08/06 02:29:11;;;;;;;9.75;6.50;;;;;;;17.09;90.87;99774.59;4948939;28;20539;-81
2021/08/06 02:31:38;;;;;;;10.13;6.63;;;;;;;17.07;90.59;99768.59;4960511;28;20178;-81
2021/08/06 02:34:04;;;;;;;9.02;6.10;;;;;;;17.05;90.96;99765.28;4964484;28;20066;-82
2021/08/06 02:36:30;;;;;;;7.47;6.13;;;;;;;17.07;90.73;99763.16;4965376;28;20043;-81
2021/08/06 02:38:59;;;;;;;7.97;6.03;;;;;;;17.05;91.02;99755.25;4964198;28;20053;-81
2021/08/06 02:41:24;;;;;;;7.82;6.50;;;;;;;17.04;90.70;99752.78;4978385;28;20048;-81
2021/08/06 02:43:50;;;;;;;10.07;6.10;;;;;;;17.01;91.54;99758.69;4962427;28;20043;-81
2021/08/06 02:46:16;;;;;;;7.18;6.35;;;;;;;16.98;91.66;99753.72;4965530;28;20050;-81
2021/08/06 02:48:42;;;;;;;11.88;6.43;;;;;;;16.98;91.61;99745.59;4962758;28;20560;-82
2021/08/06 02:51:07;;;;;;;7.38;6.00;;;;;;;16.97;91.61;99749.34;4963250;28;20130;-82
2021/08/06 02:53:32;;;;;;;9.30;7.05;;;;;;;16.94;91.70;99747.91;4962207;28;20051;-81
2021/08/06 02:55:58;;;;;;;8.38;6.22;;;;;;;16.94;92.23;99742.50;4964623;28;20046;-82
2021/08/06 02:58:24;;;;;;;8.75;6.50;;;;;;;16.95;91.99;99746.88;4964289;28;20056;-82
2021/08/06 03:00:49;;;;;;;8.60;6.18;;;;;;;16.94;91.96;99752.50;4963911;28;20480;-81
2021/08/06 03:03:15;;;;;;;8.20;6.50;;;;;;;16.94;92.11;99744.38;4964673;28;20047;-81
2021/08/06 03:05:40;;;;;;;9.50;6.25;;;;;;;16.90;92.19;99744.84;4962172;28;20327;-81
2021/08/06 03:08:06;;;;;;;8.82;6.57;;;;;;;16.91;91.77;99735.66;4956367;28;20448;-82
2021/08/06 03:10:33;;;;;;;10.13;7.05;;;;;;;16.90;92.07;99734.00;4962403;28;20050;-81
2021/08/06 03:12:58;;;;;;;7.72;6.20;;;;;;;16.89;92.74;99734.25;4956549;28;20050;-81
2021/08/06 03:15:23;;;;;;;9.73;6.22;;;;;;;16.88;92.28;99733.41;4961528;28;20042;-82
2021/08/06 03:17:49;;;;;;;11.18;6.88;;;;;;;16.89;92.68;99736.97;4961930;28;20363;-81
2021/08/06 03:20:22;;;;;;;8.50;6.45;;;;;;;16.89;92.64;99734.25;4960196;28;20109;-81
2021/08/06 03:22:49;;;;;;;8.77;7.13;;;;;;;16.86;93.00;99730.13;4963892;28;20047;-81
2021/08/06 03:25:14;;;;;;;8.27;6.60;;;;;;;16.86;92.92;99730.13;4962127;28;20480;-82
2021/08/06 03:27:40;;;;;;;9.85;6.57;;;;;;;16.86;92.51;99730.13;4960660;28;20135;-81
2021/08/06 03:30:08;;;;;;;9.02;6.47;;;;;;;16.85;93.19;99723.03;4961812;28;20039;-82
2021/08/06 03:32:34;;;;;;;8.20;6.60;;;;;;;16.88;92.91;99733.41;4963688;28;20057;-81
2021/08/06 03:35:00;;;;;;;8.30;6.53;;;;;;;16.86;92.41;99730.13;4954789;28;20514;-81
2021/08/06 03:37:25;;;;;;;9.27;6.50;;;;;;;16.85;93.12;99728.44;4946880;28;20051;-82
2021/08/06 03:39:51;;;;;;;9.77;6.45;;;;;;;16.87;92.51;99731.75;4991202;28;20082;-82
2021/08/06 03:42:16;;;;;;;10.18;6.60;;;;;;;16.81;93.44;99727.28;4984687;28;20515;-81
2021/08/06 03:44:42;;;;;;;8.43;6.00;;;;;;;16.83;92.83;99725.16;4972316;28;20064;-83
2021/08/06 03:47:08;;;;;;;8.48;6.57;;;;;;;16.83;93.26;99732.44;4986071;28;20444;-82
2021/08/06 03:49:33;;;;;;;9.98;6.50;;;;;;;16.82;93.24;99730.81;4964125;28;20539;-83
2021/08/06 03:51:58;;;;;;;9.07;6.50;;;;;;;16.80;93.33;99731.06;4980742;28;20396;-82
2021/08/06 03:54:24;;;;;;;9.07;6.50;;;;;;;16.82;93.28;99728.09;4980500;28;20125;-82
2021/08/06 03:56:49;;;;;;;8.73;6.50;;;;;;;16.81;93.32;99732.69;4965986;28;20185;-82
2021/08/06 03:59:15;;;;;;;8.80;6.57;;;;;;;16.78;93.72;99733.16;4983225;28;20507;-82
2021/08/06 04:01:40;;;;;;;8.32;6.93;;;;;;;16.78;93.67;99729.63;4982542;28;20129;-81
2021/08/06 04:04:07;;;;;;;9.93;6.80;;;;;;;16.75;94.15;99728.16;4997149;28;20042;-81
2021/08/06 04:06:33;;;;;;;9.25;6.43;;;;;;;16.78;93.73;99729.63;4963954;28;20043;-81
2021/08/06 04:08:58;;;;;;;7.45;6.13;;;;;;;16.81;93.66;99737.28;4966421;28;20042;-81
2021/08/06 04:11:24;;;;;;;7.88;6.53;;;;;;;16.83;93.70;99737.88;4962794;28;20069;-81
2021/08/06 04:13:49;;;;;;;9.02;6.35;;;;;;;16.85;92.98;99738.47;4958210;28;20038;-81
2021/08/06 04:16:15;;;;;;;8.38;6.35;;;;;;;16.87;93.55;99742.59;4958793;28;20042;-82
2021/08/06 04:18:40;;;;;;;10.32;6.40;;;;;;;16.89;93.12;99726.94;4958315;28;20229;-81
2021/08/06 04:21:06;;;;;;;9.82;6.32;;;;;;;16.93;92.88;99732.72;4982427;28;20492;-82
2021/08/06 04:23:31;;;;;;;10.18;6.40;;;;;;;16.95;93.55;99719.78;4946144;28;20121;-81
2021/08/06 04:25:56;;;;;;;7.65;6.03;;;;;;;16.98;92.88;99721.19;4942341;28;20101;-81
2021/08/06 04:28:22;;;;;;;9.65;5.70;;;;;;;16.97;92.81;99733.06;4966541;28;20057;-82
2021/08/06 04:30:48;;;;;;;9.50;5.97;;;;;;;16.97;93.16;99720.34;4980818;28;20339;-82
2021/08/06 04:33:13;;;;;;;8.50;5.78;;;;;;;16.99;93.32;99717.41;4980108;28;20042;-82
2021/08/06 04:35:39;;;;;;;7.95;6.35;;;;;;;17.01;93.37;99721.56;4980184;28;20053;-81
2021/08/06 04:38:04;;;;;;;8.45;5.95;;;;;;;17.06;93.17;99721.69;4981501;28;20038;-82
2021/08/06 04:40:30;;;;;;;9.02;5.90;;;;;;;17.06;92.97;99720.84;4979395;28;20050;-81
2021/08/06 04:42:55;;;;;;;9.02;5.88;;;;;;;17.09;93.19;99720.38;4957033;28;20066;-82
2021/08/06 04:45:20;;;;;;;6.97;5.30;;;;;;;17.09;93.31;99723.94;4981536;28;20053;-81
2021/08/06 04:47:49;;;;;;;7.00;5.57;;;;;;;17.16;92.98;99728.41;4981740;28;20105;-82
2021/08/06 04:50:16;;;;;;;6.88;4.90;;;;;;;17.17;92.79;99720.03;4982197;28;20510;-81
2021/08/06 04:52:42;;;;;;;8.63;5.80;;;;;;;17.19;93.12;99720.63;4977617;28;20050;-81
2021/08/06 04:55:08;;;;;;;7.68;5.30;;;;;;;17.19;93.53;99720.63;4977364;28;20236;-81
2021/08/06 04:57:34;;;;;;;7.10;5.22;;;;;;;17.23;93.21;99724.53;4980062;28;20124;-82
2021/08/06 04:59:59;;;;;;;8.80;4.97;;;;;;;17.25;93.45;99725.13;4980467;28;20463;-81
2021/08/06 05:02:25;;;;;;;6.63;4.72;;;;;;;17.27;93.62;99720.31;5015537;28;20042;-81
2021/08/06 05:04:50;;;;;;;6.80;4.72;;;;;;;17.28;93.51;99724.66;4978546;28;20050;-82
2021/08/06 05:07:17;;;;;;;6.38;4.50;;;;;;;17.31;93.38;99718.75;4983886;28;20042;-83
2021/08/06 05:09:44;;;;;;;6.25;4.65;;;;;;;17.33;93.49;99723.97;4981714;28;20045;-82
2021/08/06 05:12:09;;;;;;;6.85;4.90;;;;;;;17.33;93.88;99713.94;4984259;28;20046;-82
2021/08/06 05:14:35;;;;;;;7.15;4.90;;;;;;;17.36;94.21;99724.31;4983136;28;20045;-81
2021/08/06 05:17:00;;;;;;;5.93;4.25;;;;;;;17.40;93.42;99713.81;5001121;28;20228;-81
2021/08/06 05:19:25;;;;;;;6.72;4.90;;;;;;;17.40;93.37;99716.53;4999728;28;21214;-82
2021/08/06 05:21:51;;;;;;;7.30;4.60;;;;;;;17.40;93.78;99713.00;4999557;28;20192;-82
2021/08/06 05:24:16;;;;;;;8.55;4.95;;;;;;;17.42;94.09;99722.53;4987130;28;20136;-81
2021/08/06 05:26:41;;;;;;;7.40;4.78;;;;;;;17.44;92.99;99719.63;4995614;28;20392;-83
2021/08/06 05:29:07;;;;;;;8.98;5.03;;;;;;;17.46;93.89;99718.28;4979567;28;20417;-83
2021/08/06 05:31:32;;;;;;;7.43;5.30;;;;;;;17.50;94.16;99719.50;4965094;28;20054;-82
2021/08/06 05:33:57;;;;;;;6.65;4.68;;;;;;;17.48;94.85;99715.34;4981214;28;20101;-82
2021/08/06 05:36:23;;;;;;;7.22;5.32;;;;;;;17.51;94.22;99709.47;4986183;28;20058;-82
2021/08/06 05:38:48;;;;;;;10.02;5.95;;;;;;;17.47;94.85;99708.28;4978834;28;20046;-82
2021/08/06 05:41:13;;;;;;;9.77;5.68;;;;;;;17.53;94.45;99718.19;4982126;28;20067;-82
2021/08/06 05:43:39;;;;;;;8.38;6.00;;;;;;;17.49;96.42;99717.84;4980267;28;20069;-82
2021/08/06 05:46:04;;;;;;;8.00;6.05;;;;;;;17.49;95.81;99723.28;4965206;28;20045;-82
2021/08/06 05:48:30;;;;;;;9.32;6.65;;;;;;;17.53;96.02;99712.78;4967810;28;20039;-80
2021/08/06 05:50:55;;;;;;;8.95;6.00;;;;;;;17.52;95.61;99708.38;4983155;28;20146;-80
2021/08/06 05:53:21;;;;;;;8.13;6.28;;;;;;;17.49;95.97;99711.56;4997509;28;20038;-82
2021/08/06 05:55:47;;;;;;;10.38;6.60;;;;;;;17.44;96.94;99706.88;4984231;28;20046;-81
2021/08/06 05:58:12;;;;;;;9.23;6.38;;;;;;;17.48;96.04;99718.06;4984735;28;20054;-83
2021/08/06 06:00:37;;;;;;;9.07;5.90;;;;;;;17.45;97.91;99721.25;4983031;28;20033;-83
2021/08/06 06:03:03;;;;;;;8.88;5.80;;;;;;;17.48;96.71;99721.59;4981260;28;20484;-81
2021/08/06 06:05:28;;;;;;;9.50;5.95;;;;;;;17.46;97.54;99726.44;4974008;28;20440;-82
2021/08/06 06:07:54;;;;;;;9.35;5.90;;;;;;;17.49;97.56;99720.56;4996433;28;20038;-82
2021/08/06 06:10:21;;;;;;;7.75;5.38;;;;;;;17.48;97.66;99721.59;4999912;28;20042;-80
2021/08/06 06:12:47;;;;;;;7.35;5.50;;;;;;;17.49;97.98;99717.00;4997479;28;20050;-82
2021/08/06 06:15:12;;;;;;;8.00;5.72;;;;;;;17.49;98.11;99727.84;4980209;28;20112;-81
2021/08/06 06:17:38;;;;;;;7.53;5.53;;;;;;;17.53;97.66;99718.19;4984256;28;20495;-83
2021/08/06 06:20:05;;;;;;;10.80;5.65;;;;;;;17.50;98.58;99724.09;4980210;28;20675;-82
2021/08/06 06:22:32;;;;;;;8.90;6.03;;;;;;;17.50;99.11;99729.53;4980843;28;20050;-84
2021/08/06 06:24:57;;;;;;;8.23;5.65;;;;;;;17.47;98.81;99728.09;4977420;28;20431;-79
2021/08/06 06:27:23;;;;;;;14.23;6.00;;;;;;;17.40;99.73;99721.13;4979210;28;20042;-81
2021/08/06 06:29:48;;;;;;;8.88;5.50;;;;;;;17.39;100.00;99728.44;4958887;28;20660;-81
2021/08/06 06:32:14;;;;;;;8.13;5.68;;;;;;;17.46;99.85;99720.19;4980466;28;20056;-80
2021/08/06 06:34:39;;;;;;;10.38;5.60;;;;;;;17.46;99.81;99725.59;4974381;28;20541;-79
2021/08/06 06:37:04;;;;;;;7.05;5.22;;;;;;;17.48;99.64;99721.59;4982275;28;20104;-83
2021/08/06 06:39:30;;;;;;;8.48;5.30;;;;;;;17.55;100.00;99719.63;4978582;28;20046;-82
2021/08/06 06:41:55;;;;;;;8.27;5.28;;;;;;;17.54;99.90;99726.06;4975975;28;20077;-83
2021/08/06 06:44:21;;;;;;;8.15;5.50;;;;;;;17.60;99.24;99727.84;4978801;28;20086;-80
2021/08/06 06:46:46;;;;;;;9.25;5.28;;;;;;;17.63;99.99;99723.03;4973388;28;20093;-81
2021/08/06 06:49:12;;;;;;;7.70;5.28;;;;;;;17.63;100.00;99728.44;4978439;28;20034;-83
2021/08/06 06:51:37;;;;;;;6.50;4.57;;;;;;;17.60;100.00;99724.31;4979649;28;20166;-83
2021/08/06 06:54:03;;;;;;;7.88;5.10;;;;;;;17.58;100.00;99726.47;4979026;28;20495;-83
2021/08/06 06:56:28;;;;;;;7.50;5.78;;;;;;;17.58;100.00;99726.47;4975160;28;20108;-84
2021/08/06 06:58:54;;;;;;;8.55;5.28;;;;;;;17.62;100.00;99727.63;4974721;28;20057;-84
2021/08/06 07:01:20;;;;;;;7.88;5.85;;;;;;;17.60;100.00;99729.75;4981011;28;20046;-80
2021/08/06 07:03:46;;;;;;;7.50;5.03;;;;;;;17.58;100.00;99727.28;4973244;28;20469;-79
2021/08/06 07:06:11;;;;;;;7.47;5.50;;;;;;;17.57;100.00;99722.06;4974187;28;20157;-83
2021/08/06 07:08:39;;;;;;;10.00;6.25;;;;;;;17.63;100.00;99726.56;4977382;28;20042;-83
2021/08/06 07:11:05;;;;;;;8.73;6.13;;;;;;;17.63;100.00;99729.25;4978449;28;20454;-83
2021/08/06 07:13:31;;;;;;;6.93;5.70;;;;;;;17.61;100.00;99720.56;4977269;28;20043;-81
2021/08/06 07:15:57;;;;;;;8.43;5.88;;;;;;;17.61;100.00;99725.97;4983519;28;20061;-83
2021/08/06 07:18:22;;;;;;;8.50;5.70;;;;;;;17.58;100.00;99731.88;4983485;28;20062;-81
2021/08/06 07:20:47;;;;;;;7.32;5.50;;;;;;;17.60;100.00;99725.13;5001282;28;20294;-82
2021/08/06 07:23:13;;;;;;;8.55;5.22;;;;;;;17.59;100.00;99736.22;4988087;28;20045;-84
2021/08/06 07:25:39;;;;;;;7.45;5.60;;;;;;;17.62;100.00;99732.22;4986565;28;20045;-84
2021/08/06 07:28:04;;;;;;;7.68;5.90;;;;;;;17.67;100.00;99729.63;4994082;28;20046;-80
2021/08/06 07:30:30;;;;;;;8.43;5.82;;;;;;;17.70;100.00;99735.41;4993340;28;20649;-80
2021/08/06 07:32:55;;;;;;;8.77;5.93;;;;;;;17.72;100.00;99727.88;4987757;28;20264;-83
2021/08/06 07:35:22;;;;;;;8.93;7.30;;;;;;;17.68;100.00;99726.69;5020624;28;20038;-79
2021/08/06 07:37:47;;;;;;;9.13;7.50;;;;;;;17.72;100.00;99733.28;4985616;28;20030;-82
2021/08/06 07:40:16;;;;;;;7.95;6.72;;;;;;;17.76;100.00;99731.75;4987878;28;20507;-80
2021/08/06 07:42:41;;;;;;;8.77;6.90;;;;;;;17.80;100.00;99732.94;4985395;28;20054;-80
2021/08/06 07:45:08;;;;;;;9.10;6.82;;;;;;;17.76;100.00;99739.88;4986790;28;20043;-83
2021/08/06 07:47:34;;;;;;;11.68;7.40;;;;;;;17.76;100.00;99739.88;4988453;28;20049;-83
2021/08/06 07:49:59;;;;;;;11.00;7.70;;;;;;;17.75;100.00;99743.66;4986377;28;20038;-84
2021/08/06 07:52:25;;;;;;;9.85;7.55;;;;;;;17.75;100.00;99742.81;4986451;28;20074;-83
2021/08/06 07:54:50;;;;;;;9.77;7.50;;;;;;;17.80;100.00;99749.22;4988224;28;20046;-82
2021/08/06 07:57:16;;;;;;;8.95;7.30;;;;;;;17.75;100.00;99743.66;4988212;28;20488;-81
2021/08/06 07:59:41;;;;;;;9.02;6.95;;;;;;;17.77;100.00;99740.72;4984078;28;20049;-81
2021/08/06 08:02:07;;;;;;;9.18;7.63;;;;;;;17.79;100.00;99741.34;4987446;28;20073;-81
2021/08/06 08:04:34;;;;;;;7.25;6.47;;;;;;;17.75;100.00;99743.66;4987787;28;20072;-82
2021/08/06 08:06:59;;;;;;;7.45;6.45;;;;;;;17.80;100.00;99746.50;4983970;28;20531;-81
2021/08/06 08:09:24;;;;;;;7.88;6.40;;;;;;;17.90;100.00;99750.53;5014770;28;20129;-82
2021/08/06 08:11:50;;;;;;;8.55;6.43;;;;;;;17.96;100.00;99752.28;4959618;28;20447;-81
2021/08/06 08:14:15;;;;;;;8.27;6.47;;;;;;;18.06;100.00;99746.25;4987182;28;20475;-79
2021/08/06 08:16:41;;;;;;;9.02;6.20;;;;;;;18.16;100.00;99744.59;5001392;28;20541;-81
2021/08/06 08:19:06;;;;;;;8.20;6.35;;;;;;;18.23;99.33;99752.59;4982038;28;20550;-81
2021/08/06 08:21:32;;;;;;;8.27;6.30;;;;;;;18.29;99.46;99753.53;4984848;28;20034;-82
2021/08/06 08:23:57;;;;;;;8.68;5.85;;;;;;;18.35;99.81;99747.13;4984064;28;20039;-80
2021/08/06 08:26:23;;;;;;;8.75;5.72;;;;;;;18.42;99.44;99743.22;4981911;28;20042;-81
2021/08/06 08:28:48;;;;;;;9.07;5.85;;;;;;;18.46;99.16;99746.28;4987439;28;20049;-79
2021/08/06 08:31:14;;;;;;;7.38;5.28;;;;;;;18.49;98.80;99743.06;4985233;28;20495;-82
2021/08/06 08:33:39;;;;;;;7.38;5.18;;;;;;;18.54;97.95;99745.06;4984168;28;20053;-81
2021/08/06 08:36:04;;;;;;;9.50;5.30;;;;;;;18.72;99.06;99751.13;4987080;28;20058;-80
2021/08/06 08:38:31;;;;;;;8.65;4.82;;;;;;;18.76;97.96;99742.50;4983679;28;20077;-79
2021/08/06 08:40:58;;;;;;;6.13;4.38;;;;;;;18.90;96.41;99743.84;4986060;28;20049;-78
2021/08/06 08:43:24;;;;;;;7.63;4.05;;;;;;;18.97;94.94;99739.09;4976743;28;20074;-83
2021/08/06 08:45:50;;;;;;;4.70;3.63;;;;;;;19.06;94.26;99737.63;4997005;28;20328;-80
2021/08/06 08:48:17;;;;;;;4.53;3.00;;;;;;;19.15;93.44;99738.88;4969361;28;20035;-83
2021/08/06 08:50:43;;;;;;;5.07;3.35;;;;;;;19.15;93.42;99738.88;4980291;28;20065;-80
2021/08/06 08:53:09;;;;;;;4.88;3.55;;;;;;;19.17;93.00;99753.06;4984935;28;20034;-80
2021/08/06 08:55:38;;;;;;;3.92;2.60;;;;;;;19.19;91.76;99750.09;4985322;28;20046;-82
2021/08/06 08:58:05;;;;;;;3.85;2.40;;;;;;;19.21;91.20;99744.41;4985986;28;20562;-80
2021/08/06 09:00:30;;;;;;;4.60;2.63;;;;;;;19.16;90.38;99748.69;4986057;28;20066;-83
2021/08/06 09:02:56;;;;;;;3.45;2.50;;;;;;;19.19;89.39;99749.25;4982661;28;20065;-78
2021/08/06 09:05:26;;;;;;;3.95;2.33;;;;;;;19.27;89.48;99749.66;4979992;28;20440;-79
2021/08/06 09:07:52;;;;;;;3.92;2.08;;;;;;;19.47;89.02;99754.63;4981869;28;20113;-80
2021/08/06 09:10:26;;;;;;;3.30;1.67;;;;;;;19.47;84.97;99749.19;4979182;28;20547;-81
2021/08/06 09:12:59;;;;;;;5.03;1.60;;;;;;;19.53;84.38;99748.19;4960615;28;20043;-82
2021/08/06 09:15:53;;;;;;;2.80;1.10;;;;;;;19.67;83.31;99753.31;4956103;28;20075;-79
2021/08/06 09:18:37;;;;;;;2.75;1.42;;;;;;;19.77;81.46;99751.59;4959333;28;20046;-82
2021/08/06 09:21:03;;;;;;;2.00;1.20;;;;;;;19.72;81.73;99742.53;4955967;28;20518;-81
2021/08/06 09:23:56;;;;;;;3.55;1.77;;;;;;;19.75;82.62;99763.78;4971231;28;20038;-80
2021/08/06 09:26:27;;;;;;;3.60;1.60;;;;;;;19.74;83.11;99764.88;4936474;28;20138;-79
2021/08/06 09:29:10;;;;;;;3.65;1.80;;;;;;;19.71;83.46;99757.19;4972381;28;20257;-80
2021/08/06 09:31:59;;;;;;;2.92;1.67;;;;;;;19.91;83.46;99754.78;4981270;28;20451;-80
2021/08/06 09:34:31;;;;;;;3.10;1.48;;;;;;;19.93;82.06;99760.78;4991306;28;20041;-83
2021/08/06 09:37:09;;;;;;;2.30;1.52;;;;;;;19.97;82.21;99759.22;4949065;28;20039;-79
2021/08/06 09:39:55;;;;;;;3.33;1.50;;;;;;;20.08;81.09;99762.06;4960632;28;20070;-80
2021/08/06 09:42:25;;;;;;;2.83;1.58;;;;;;;20.21;80.75;99753.53;4962495;28;20038;-80
2021/08/06 09:45:00;;;;;;;3.45;1.50;;;;;;;20.23;80.24;99751.38;4947147;28;20041;-81
2021/08/06 09:47:27;;;;;;;2.35;1.70;;;;;;;20.23;80.78;99751.38;4962350;28;20042;-80
2021/08/06 09:49:55;;;;;;;2.80;1.45;;;;;;;20.23;79.91;99756.84;4943241;28;21161;-82
2021/08/06 09:52:32;;;;;;;3.75;1.60;;;;;;;20.29;79.01;99755.81;4958109;28;20193;-83
2021/08/06 09:54:57;;;;;;;3.47;1.40;;;;;;;20.35;79.48;99756.72;4953251;28;20046;-82
2021/08/06 09:57:23;;;;;;;5.25;1.60;;;;;;;20.32;77.35;99759.94;4974773;28;20042;-80
2021/08/06 09:59:54;;;;;;;4.35;1.63;;;;;;;20.21;77.19;99759.81;4946699;28;20051;-80
2021/08/06 10:02:20;;;;;;;3.90;1.60;;;;;;;20.14;76.80;99770.06;4952407;28;20058;-81
2021/08/06 10:05:00;;;;;;;4.38;1.70;;;;;;;20.16;78.00;99772.53;4956629;28;20109;-78
2021/08/06 10:07:26;;;;;;;4.35;1.80;;;;;;;20.15;76.88;99773.63;4958013;28;20085;-81
2021/08/06 10:09:52;;;;;;;4.60;2.13;;;;;;;20.08;77.24;99781.94;4956165;28;20685;-83
2021/08/06 10:12:18;;;;;;;6.25;1.75;;;;;;;20.02;77.27;99767.47;4958531;28;20054;-79
2021/08/06 10:14:43;;;;;;;4.57;2.42;;;;;;;20.05;78.32;99782.44;4971535;28;20042;-79
2021/08/06 10:17:10;;;;;;;4.13;2.08;;;;;;;20.16;77.90;99784.25;4980608;28;20046;-83
2021/08/06 10:19:36;;;;;;;3.60;1.77;;;;;;;20.17;78.24;99779.59;4980468;28;20042;-82
2021/08/06 10:22:01;;;;;;;4.13;2.15;;;;;;;20.28;78.66;99775.94;4979533;28;20651;-82
2021/08/06 10:24:27;;;;;;;5.18;2.08;;;;;;;20.32;77.86;99777.09;4978827;28;20471;-83
2021/08/06 10:26:53;;;;;;;5.93;2.55;;;;;;;20.34;78.48;99780.41;4984479;28;20039;-79
2021/08/06 10:29:20;;;;;;;5.95;2.00;;;;;;;20.36;78.31;99778.22;4999938;28;20479;-80
2021/08/06 10:32:10;;;;;;;3.47;1.98;;;;;;;20.58;77.14;99777.44;4982151;28;20076;-81
2021/08/06 10:35:07;;;;;;;4.28;2.13;;;;;;;20.60;76.85;99783.44;4983496;28;20039;-80
2021/08/06 10:37:45;;;;;;;3.55;1.70;;;;;;;20.59;77.50;99779.91;4992833;28;20046;-81
2021/08/06 10:40:10;;;;;;;4.50;1.70;;;;;;;20.62;75.32;99792.19;5000424;28;20052;-79
2021/08/06 10:42:36;;;;;;;4.47;1.83;;;;;;;20.60;76.11;99784.31;4980180;28;20046;-79
2021/08/06 10:45:02;;;;;;;4.80;1.85;;;;;;;20.66;75.29;99788.72;4979041;28;20038;-83
2021/08/06 10:47:53;;;;;;;5.32;2.00;;;;;;;20.63;76.03;99796.56;4971095;28;20129;-79
2021/08/06 10:50:21;;;;;;;5.35;2.00;;;;;;;20.70;75.97;99789.03;5003329;28;20054;-81
2021/08/06 10:53:19;;;;;;;5.10;1.90;;;;;;;20.60;76.04;99783.44;4980488;28;20065;-80
2021/08/06 10:55:44;;;;;;;4.53;2.00;;;;;;;20.69;74.91;99782.75;4996610;28;20038;-80
2021/08/06 10:58:48;;;;;;;3.60;1.70;;;;;;;20.73;74.92;99781.16;4988472;28;20478;-83
2021/08/06 11:01:30;;;;;;;5.85;2.10;;;;;;;20.93;73.28;99766.09;4993909;28;20042;-78
2021/08/06 11:04:05;;;;;;;4.35;2.13;;;;;;;21.14;73.02;99780.75;4983766;28;20042;-81
2021/08/06 11:06:41;;;;;;;5.00;2.03;;;;;;;21.24;72.01;99772.69;5003757;28;20692;-78
2021/08/06 11:09:31;;;;;;;4.43;1.83;;;;;;;21.22;71.62;99769.38;4982842;28;20053;-80
2021/08/06 11:12:01;;;;;;;4.40;1.80;;;;;;;21.14;70.85;99761.66;4979700;28;20062;-82
2021/08/06 11:14:32;;;;;;;6.43;1.95;;;;;;;21.15;72.13;99775.06;4984147;28;20039;-78
2021/08/06 11:17:08;;;;;;;5.03;1.95;;;;;;;21.36;71.97;99772.50;4990139;28;20038;-80
2021/08/06 11:19:40;;;;;;;6.28;3.15;;;;;;;21.45;70.52;99779.16;5019562;28;20058;-80
2021/08/06 11:22:16;;;;;;;3.15;1.70;;;;;;;21.30;71.00;99782.56;4990562;28;20038;-81
2021/08/06 11:24:47;;;;;;;4.40;2.35;;;;;;;21.25;71.48;99785.22;4998926;28;20046;-81
2021/08/06 11:27:13;;;;;;;3.53;1.98;;;;;;;21.05;70.71;99779.59;4984865;28;20399;-82
2021/08/06 11:29:41;;;;;;;6.93;2.47;;;;;;;20.91;71.69;99784.63;5001097;28;20176;-77
2021/08/06 11:32:15;;;;;;;4.40;2.22;;;;;;;20.74;71.67;99787.44;4986850;28;20042;-78
2021/08/06 11:34:58;;;;;;;6.68;2.83;;;;;;;20.56;75.54;99795.94;4985399;28;20049;-77